Airfield :
LOGIN :

Register | Disclaimer

   EN    FR    IT 

 










Legend :    VFR   Marginal VFR   IFR   Intensive IFR   Very Intensive IFR
Visi :
Ceiling :
>= 8 km
>= 3000ft
5 to 8 km
1000 to 3000 ft
1500m to 5 km
500 to 1000 ft
800 to 1500m
200 to 500 ft
< 800m
< 200 ft
Symbols :   Thunderstorms  Fog  Heavy snow  Heavy precipitations  Wind > 20 kt
SIGMETs :     Misc.  Thunderstorms  Icing  Turbulence  Mountain Waves  Volcanic Ashes






- Airport Elevation : 1674 ft
- IATA code : BRN


LSZB - Bern Belp

CURRENT METAR :
  • 061950Z AUTO VRB01KT 6000 BKN060 01/00 Q1019

EXPIRED METARs :
  • 061920Z AUTO VRB01KT 6000 BKN060 M00/M01 Q1019
  • 061850Z 00000KT 5000 NSC M01/M01 Q1019 REFZDZ NOSIG
  • 061820Z VRB02KT 4500 BR FEW002 M00/M00 Q1019 REFZDZ NOSIG
  • 061750Z VRB04KT 4000 BR FEW002 M01/M01 Q1019 NOSIG
  • 061720Z 13004KT 4000 BR FEW001 M01/M01 Q1019 NOSIG

TAF AMD TAF LSZB
Valid from the 06 at 17:00 until the 07 at 00:00 UTC


061759Z 0617/0624 VRB03KT 4000 BR FEW002
PROB40 0618/0622 2000 BCFG BKN002
BECMG 0619/0622 5000 BKN070
ATIS : +41 22 417 40 76



MET'MAP, your aeronautical weather chart ! - Copyright ORBIFLY December 2007 - Disclaimer

ORBIFLY MET'MAP TEAM :

Programming & Development : Alexandra Zaïnal
Concept & original design : Baudouin d'Aumeries
Assistance for programming : Marc-Olivier Méhu
Technical & hardware support : Manuel Goepfert

Contact : metmap@orbifly.com




SOURCES & CREDITS :

   NOAA